Time;durP1;ratioP1;P1;durP2;ratioP2;P2;SDS_P1;SDS_P2;PMS_P1;PMS_P2;Temp;Humidity;BMP_temperature;BMP_pressure;BME280_temperature;BME280_humidity;BME280_pressure;Samples;Min_cycle;Max_cycle;Signal;HPM_P1;HPM_P2
2023/10/09 00:09:30;;;;;;;5.70;3.80;;;15.10;99.90;;;;;;20910271;28;20212;-67
2023/10/09 00:19:33;;;;;;;5.80;3.60;;;16.70;99.90;;;;;;20910086;28;20259;-67
2023/10/09 00:29:38;;;;;;;6.90;3.60;;;15.10;99.90;;;;;;20914223;28;20285;-67
2023/10/09 00:49:43;;;;;;;6.93;3.67;;;15.20;99.90;;;;;;20922881;28;20232;-66
2023/10/09 00:59:48;;;;;;;6.40;3.53;;;15.20;99.90;;;;;;20922522;28;20228;-66
2023/10/09 01:09:53;;;;;;;5.80;3.43;;;15.10;99.90;;;;;;20921555;28;20204;-67
2023/10/09 01:19:56;;;;;;;7.30;3.63;;;15.10;99.90;;;;;;20920720;28;20240;-66
2023/10/09 01:29:59;;;;;;;10.10;3.93;;;15.00;99.90;;;;;;20920282;28;20214;-66
2023/10/09 01:40:51;;;;;;;8.27;3.67;;;15.00;99.90;;;;;;20918786;28;20271;-66
2023/10/09 01:50:27;;;;;;;7.47;3.70;;;14.90;99.90;;;;;;20914134;28;20238;-67
2023/10/09 02:00:29;;;;;;;4.13;3.20;;;14.90;99.90;;;;;;20917911;28;20749;-67
2023/10/09 02:10:31;;;;;;;10.43;3.33;;;14.90;99.90;;;;;;20917353;28;20203;-67
2023/10/09 02:20:37;;;;;;;11.53;4.17;;;14.90;99.90;;;;;;20916025;28;20243;-66
2023/10/09 02:30:41;;;;;;;6.13;4.07;;;14.80;99.90;;;;;;20916040;28;20721;-67
2023/10/09 02:51:03;;;;;;;5.77;3.60;;;14.70;99.90;;;;;;20913020;28;20228;-66
2023/10/09 03:01:13;;;;;;;7.03;3.73;;;14.60;99.90;;;;;;20913309;28;20265;-67
2023/10/09 03:11:15;;;;;;;4.17;3.37;;;14.50;99.90;;;;;;20913228;28;20210;-66
2023/10/09 03:21:17;;;;;;;7.33;3.50;;;14.50;99.90;;;;;;20912627;28;20235;-67
2023/10/09 03:31:18;;;;;;;6.10;3.20;;;14.50;99.90;;;;;;20911996;28;20715;-67
2023/10/09 03:41:21;;;;;;;4.37;3.40;;;14.50;99.90;;;;;;20911802;28;20236;-66
2023/10/09 03:51:23;;;;;;;6.50;3.73;;;14.40;99.90;;;;;;20910866;28;20327;-66
2023/10/09 04:01:28;;;;;;;4.33;3.57;;;14.40;99.90;;;;;;20911492;28;20231;-67
2023/10/09 04:11:30;;;;;;;5.47;3.53;;;14.50;99.90;;;;;;20927820;28;20268;-67
2023/10/09 04:21:36;;;;;;;8.63;3.83;;;14.40;99.90;;;;;;20925492;28;20698;-66
2023/10/09 04:31:38;;;;;;;6.70;3.37;;;14.30;99.90;;;;;;20924611;28;20243;-67
2023/10/09 04:51:59;;;;;;;6.57;3.90;;;14.20;99.90;;;;;;20921916;28;20228;-66
2023/10/09 05:02:04;;;;;;;9.20;3.80;;;14.30;99.90;;;;;;20920625;28;20233;-66
2023/10/09 05:12:15;;;;;;;15.57;4.13;;;14.20;99.90;;;;;;20922109;28;20579;-67
2023/10/09 05:22:36;;;;;;;11.77;4.57;;;14.20;99.90;;;;;;20919711;28;20239;-66
2023/10/09 05:32:48;;;;;;;9.33;4.10;;;14.30;99.90;;;;;;20919873;28;20210;-66
2023/10/09 05:42:59;;;;;;;9.37;3.97;;;14.30;99.90;;;;;;20919258;28;20239;-66
2023/10/09 06:13:37;;;;;;;12.13;5.00;;;14.40;99.90;;;;;;20916903;28;20660;-66
2023/10/09 06:34:15;;;;;;;24.50;5.60;;;14.40;99.90;;;;;;20915011;28;20203;-67
2023/10/09 06:44:52;;;;;;;23.60;5.00;;;14.40;99.90;;;;;;20914172;28;20603;-67
2023/10/09 06:54:40;;;;;;;13.30;5.07;;;14.50;99.90;;;;;;20912518;28;20234;-64
2023/10/09 07:24:56;;;;;;;15.60;5.27;;;14.90;99.90;;;;;;20912185;28;20600;-65
2023/10/09 07:34:59;;;;;;;19.27;5.47;;;15.10;99.90;;;;;;20911747;28;20654;-65
2023/10/09 07:45:54;;;;;;;19.13;5.40;;;15.30;99.90;;;;;;20926137;28;20238;-65
2023/10/09 07:55:26;;;;;;;9.20;5.00;;;15.40;99.90;;;;;;20927469;28;20235;-65
2023/10/09 08:05:33;;;;;;;11.13;5.37;;;15.60;99.90;;;;;;20926311;28;20263;-66
2023/10/09 08:15:51;;;;;;;11.93;4.93;;;15.80;99.90;;;;;;20925358;28;20219;-65
2023/10/09 08:26:12;;;;;;;19.10;6.40;;;15.90;99.90;;;;;;20924967;28;20593;-65
2023/10/09 08:36:15;;;;;;;18.17;6.73;;;16.00;99.90;;;;;;20924278;28;22634;-65
2023/10/09 08:46:28;;;;;;;18.53;6.40;;;16.00;99.90;;;;;;20923773;28;20266;-65
2023/10/09 08:56:30;;;;;;;14.50;5.73;;;16.10;99.90;;;;;;20921870;28;20250;-65
2023/10/09 09:06:41;;;;;;;13.10;5.70;;;16.30;99.90;;;;;;20920965;28;20302;-65
2023/10/09 09:16:44;;;;;;;22.37;6.67;;;16.30;99.90;;;;;;20920819;28;20629;-65
2023/10/09 09:26:47;;;;;;;20.97;7.23;;;16.40;99.90;;;;;;20920011;28;20209;-65
2023/10/09 09:36:58;;;;;;;29.33;10.07;;;16.50;99.90;;;;;;20919511;28;20231;-66
2023/10/09 09:47:01;;;;;;;33.47;10.10;;;16.60;99.90;;;;;;20918485;28;20214;-66
2023/10/09 09:57:08;;;;;;;29.20;10.57;;;16.70;99.90;;;;;;20918230;28;20574;-66
2023/10/09 10:07:15;;;;;;;56.97;19.80;;;16.90;99.90;;;;;;20916784;28;20207;-66
2023/10/09 10:17:17;;;;;;;23.63;8.60;;;16.90;99.90;;;;;;20916051;28;20257;-67
2023/10/09 10:27:24;;;;;;;37.13;11.37;;;17.20;99.90;;;;;;20915662;28;20570;-66
2023/10/09 10:38:10;;;;;;;43.70;11.30;;;17.30;99.90;;;;;;20914492;28;20243;-66
2023/10/09 10:48:07;;;;;;;25.70;9.43;;;17.50;99.90;;;;;;20913977;28;20211;-66
2023/10/09 10:58:23;;;;;;;19.17;7.47;;;17.60;99.90;;;;;;20913775;28;20643;-67
2023/10/09 11:08:32;;;;;;;24.13;9.00;;;17.70;99.90;;;;;;20912581;28;20226;-66
2023/10/09 11:18:42;;;;;;;24.37;8.27;;;17.80;99.90;;;;;;20911752;28;20270;-67
2023/10/09 11:28:57;;;;;;;12.87;4.30;;;17.90;99.90;;;;;;20911697;28;20218;-66
2023/10/09 11:39:16;;;;;;;12.17;4.57;;;18.20;99.90;;;;;;20911289;28;20231;-66
2023/10/09 11:59:23;;;;;;;7.80;4.00;;;18.50;99.90;;;;;;20949177;28;20233;-66
2023/10/09 12:09:25;;;;;;;10.80;3.83;;;18.80;99.90;;;;;;20961619;28;20242;-65
2023/10/09 12:19:28;;;;;;;8.93;3.97;;;18.90;99.90;;;;;;20909801;28;20239;-65
2023/10/09 12:29:30;;;;;;;13.07;4.17;;;19.00;99.90;;;;;;20977659;28;20245;-65
2023/10/09 12:39:39;;;;;;;9.93;3.90;;;19.00;99.70;;;;;;21007353;28;20238;-64
2023/10/09 12:49:41;;;;;;;12.77;4.70;;;19.20;99.50;;;;;;21003193;28;20247;-64
2023/10/09 12:59:45;;;;;;;10.57;4.17;;;19.30;98.80;;;;;;21004703;28;20313;-64
2023/10/09 13:10:08;;;;;;;14.93;4.00;;;19.50;98.20;;;;;;21004608;28;20678;-65
2023/10/09 13:20:12;;;;;;;18.40;5.80;;;19.70;97.60;;;;;;21003627;28;20321;-65
2023/10/09 13:30:21;;;;;;;11.40;3.97;;;19.80;96.60;;;;;;21002649;28;20214;-73
2023/10/09 13:40:29;;;;;;;12.83;4.37;;;19.90;96.30;;;;;;21001945;28;20243;-75
2023/10/09 13:50:35;;;;;;;14.83;5.80;;;20.00;95.90;;;;;;21001217;28;20233;-74
2023/10/09 14:00:42;;;;;;;14.83;5.50;;;20.10;95.40;;;;;;21000070;28;20694;-73
2023/10/09 14:10:48;;;;;;;16.40;7.00;;;20.10;94.60;;;;;;21000033;28;20215;-74
2023/10/09 14:20:52;;;;;;;20.03;5.00;;;20.10;93.50;;;;;;20950552;28;20336;-78
2023/10/09 14:30:59;;;;;;;19.57;5.40;;;20.20;92.30;;;;;;20982054;28;20286;-74
2023/10/09 14:41:02;;;;;;;20.20;5.30;;;20.20;91.40;;;;;;20916236;28;20600;-76
2023/10/09 14:51:07;;;;;;;20.97;9.03;;;20.10;90.60;;;;;;20970363;28;20701;-73
2023/10/09 15:01:09;;;;;;;16.50;4.87;;;20.20;89.00;;;;;;21079722;28;20780;-75
2023/10/09 15:11:11;;;;;;;8.27;3.97;;;20.20;85.90;;;;;;21079486;28;20203;-74
2023/10/09 15:21:13;;;;;;;11.07;4.43;;;20.20;83.00;;;;;;21069857;28;20227;-74
2023/10/09 15:31:16;;;;;;;13.33;4.97;;;20.20;81.30;;;;;;20994743;28;20207;-74
2023/10/09 15:41:21;;;;;;;9.30;4.37;;;20.20;81.20;;;;;;20994466;28;20250;-74
2023/10/09 15:51:22;;;;;;;12.70;5.07;;;20.10;81.70;;;;;;20993864;28;20235;-75
2023/10/09 16:01:25;;;;;;;8.40;4.47;;;20.00;82.70;;;;;;21001074;28;20257;-75
2023/10/09 16:11:26;;;;;;;11.77;5.00;;;19.90;84.00;;;;;;21009657;28;20211;-75
2023/10/09 16:21:29;;;;;;;16.27;4.97;;;19.80;85.20;;;;;;20990372;28;20638;-75
2023/10/09 16:31:35;;;;;;;10.83;5.17;;;19.60;86.90;;;;;;21007613;28;20217;-76
2023/10/09 16:41:41;;;;;;;15.17;7.67;;;19.60;87.60;;;;;;21007093;28;20583;-72
2023/10/09 16:51:43;;;;;;;10.50;5.57;;;19.40;88.30;;;;;;21006136;28;20781;-81
2023/10/09 17:01:45;;;;;;;13.93;5.70;;;19.40;89.10;;;;;;21005721;28;20274;-73
2023/10/09 17:11:51;;;;;;;12.23;5.00;;;19.30;89.80;;;;;;21003659;28;20258;-71
2023/10/09 17:21:56;;;;;;;11.83;5.47;;;19.20;90.50;;;;;;21003491;28;20231;-70
2023/10/09 17:31:58;;;;;;;19.43;5.67;;;19.10;91.00;;;;;;21003004;28;20295;-69
2023/10/09 17:42:00;;;;;;;14.40;5.93;;;19.00;91.30;;;;;;21002426;28;20562;-67
2023/10/09 17:52:03;;;;;;;13.50;5.27;;;18.90;91.50;;;;;;20998566;28;20239;-67
2023/10/09 18:02:05;;;;;;;16.87;6.00;;;18.80;91.60;;;;;;20962455;28;20249;-67
2023/10/09 18:12:07;;;;;;;12.83;4.97;;;18.80;91.80;;;;;;20915558;28;20204;-69
2023/10/09 18:22:12;;;;;;;15.03;5.70;;;18.70;92.10;;;;;;20948419;28;20237;-69
2023/10/09 18:32:14;;;;;;;12.40;6.10;;;18.60;92.50;;;;;;20996022;28;20213;-68
2023/10/09 18:42:17;;;;;;;14.60;6.83;;;18.40;93.10;;;;;;20996079;28;20249;-68
2023/10/09 18:52:19;;;;;;;21.83;9.17;;;18.40;93.10;;;;;;20996555;28;20329;-68
2023/10/09 19:02:20;;;;;;;21.37;8.30;;;18.30;93.70;;;;;;20995835;28;20296;-70
2023/10/09 19:12:22;;;;;;;14.90;7.43;;;18.20;94.00;;;;;;20995564;28;20222;-67
2023/10/09 19:22:24;;;;;;;14.23;7.40;;;18.20;94.40;;;;;;20994893;28;20244;-70
2023/10/09 19:32:26;;;;;;;16.77;7.83;;;18.10;94.60;;;;;;20995155;28;20209;-69
2023/10/09 19:42:27;;;;;;;16.13;7.10;;;18.00;94.90;;;;;;21010928;28;20241;-70
2023/10/09 19:52:32;;;;;;;16.60;7.20;;;17.90;95.50;;;;;;21011108;28;20663;-70
2023/10/09 20:02:35;;;;;;;18.27;7.00;;;17.90;95.70;;;;;;21009549;28;20726;-68
2023/10/09 20:12:41;;;;;;;14.23;6.90;;;17.60;96.00;;;;;;21008666;28;20711;-69
2023/10/09 20:22:42;;;;;;;18.80;6.80;;;17.60;96.30;;;;;;21008564;28;20325;-69
2023/10/09 20:32:44;;;;;;;18.80;7.20;;;17.50;96.70;;;;;;21006915;28;20615;-68
2023/10/09 20:42:47;;;;;;;13.43;6.80;;;17.30;97.20;;;;;;21007701;28;20643;-67
2023/10/09 20:52:49;;;;;;;14.57;7.07;;;17.30;97.60;;;;;;21006525;28;20236;-65
2023/10/09 21:02:54;;;;;;;13.27;6.50;;;17.20;97.80;;;;;;21005631;28;20233;-66
2023/10/09 21:12:55;;;;;;;14.43;7.53;;;17.20;98.20;;;;;;21005828;28;20210;-66
2023/10/09 21:22:58;;;;;;;14.47;7.70;;;17.10;98.20;;;;;;21004628;28;20601;-66
2023/10/09 21:33:00;;;;;;;13.67;6.80;;;17.10;98.50;;;;;;21002468;28;20214;-66
2023/10/09 21:43:07;;;;;;;16.27;7.13;;;17.00;98.90;;;;;;21002542;28;20763;-66
2023/10/09 21:53:09;;;;;;;15.33;7.00;;;16.90;99.10;;;;;;21001836;28;20586;-66
2023/10/09 22:03:11;;;;;;;15.30;6.90;;;16.80;99.20;;;;;;20982397;28;20767;-69
2023/10/09 22:13:14;;;;;;;12.43;6.67;;;16.70;99.50;;;;;;20999969;28;20206;-70
2023/10/09 22:23:19;;;;;;;13.57;7.20;;;16.70;99.70;;;;;;20999968;28;20303;-67
2023/10/09 22:33:24;;;;;;;14.07;6.40;;;16.50;99.60;;;;;;20998733;28;20211;-67
2023/10/09 22:43:27;;;;;;;16.30;6.73;;;16.50;99.90;;;;;;20997535;28;20696;-70
2023/10/09 22:53:38;;;;;;;13.47;6.53;;;16.50;99.90;;;;;;20996942;28;20238;-69
2023/10/09 23:03:42;;;;;;;16.80;7.27;;;16.40;99.90;;;;;;20996476;28;20237;-69
2023/10/09 23:13:53;;;;;;;15.73;7.30;;;16.30;99.90;;;;;;20995058;28;20623;-69
2023/10/09 23:24:08;;;;;;;13.47;6.80;;;16.20;99.90;;;;;;20995818;28;20755;-66
2023/10/09 23:34:19;;;;;;;13.10;6.63;;;16.20;99.90;;;;;;20995484;28;20210;-69
2023/10/09 23:44:24;;;;;;;13.23;6.87;;;16.20;99.90;;;;;;20994655;28;20233;-67
2023/10/09 23:54:27;;;;;;;14.53;7.60;;;16.10;99.90;;;;;;20994535;28;20239;-68
